createdAt,value
2023-03-18T00:08:24.600Z,6.76
2023-03-18T00:13:56.667Z,6.71
2023-03-18T00:19:28.608Z,6.65
2023-03-18T00:25:00.642Z,6.59
2023-03-18T00:30:32.497Z,6.54
2023-03-18T00:36:04.244Z,6.50
2023-03-18T00:41:36.614Z,6.45
2023-03-18T00:47:08.752Z,6.40
2023-03-18T00:52:40.806Z,6.35
2023-03-18T00:58:12.983Z,6.31
2023-03-18T01:03:45.078Z,6.27
2023-03-18T01:09:18.230Z,6.22
2023-03-18T01:14:50.086Z,6.17
2023-03-18T01:20:22.307Z,6.12
2023-03-18T01:25:54.915Z,6.06
2023-03-18T01:31:26.973Z,6.01
2023-03-18T01:36:59.119Z,5.96
2023-03-18T01:42:31.498Z,5.90
2023-03-18T01:48:03.411Z,5.84
2023-03-18T01:53:35.241Z,5.79
2023-03-18T01:59:07.010Z,5.75
2023-03-18T02:04:39.023Z,5.71
2023-03-18T02:10:11.039Z,5.68
2023-03-18T02:15:42.760Z,5.66
2023-03-18T02:21:14.636Z,5.64
2023-03-18T02:26:46.951Z,5.63
2023-03-18T02:32:18.818Z,5.62
2023-03-18T02:37:50.797Z,5.61
2023-03-18T02:43:23.181Z,5.60
2023-03-18T02:48:55.346Z,5.59
2023-03-18T02:54:27.305Z,5.58
2023-03-18T02:59:59.364Z,5.57
2023-03-18T03:05:31.110Z,5.57
2023-03-18T03:11:03.185Z,5.58
2023-03-18T03:16:35.050Z,5.61
2023-03-18T03:22:06.921Z,5.64
2023-03-18T03:27:38.424Z,5.69
2023-03-18T03:33:10.466Z,5.75
2023-03-18T03:38:42.800Z,5.81
2023-03-18T03:44:14.999Z,5.87
2023-03-18T03:49:47.630Z,5.95
2023-03-18T03:55:19.951Z,6.02
2023-03-18T04:00:52.000Z,6.10
2023-03-18T04:06:23.941Z,6.17
2023-03-18T04:11:56.020Z,6.23
2023-03-18T04:17:28.134Z,6.29
2023-03-18T04:23:00.412Z,6.34
2023-03-18T04:28:32.661Z,6.38
2023-03-18T04:34:04.744Z,6.40
2023-03-18T04:39:36.814Z,6.42
2023-03-18T04:45:08.723Z,6.43
2023-03-18T04:50:41.915Z,6.43
2023-03-18T04:56:14.512Z,6.42
2023-03-18T05:01:46.939Z,6.42
2023-03-18T05:07:19.048Z,6.41
2023-03-18T05:12:51.318Z,6.41
2023-03-18T05:18:23.518Z,6.41
2023-03-18T05:23:55.898Z,6.41
2023-03-18T05:29:28.415Z,6.41
2023-03-18T05:35:00.870Z,6.40
2023-03-18T05:40:33.475Z,6.40
2023-03-18T05:46:05.567Z,6.41
2023-03-18T05:51:39.674Z,6.42
2023-03-18T05:57:11.927Z,6.45
2023-03-18T06:02:44.002Z,6.48
2023-03-18T06:08:16.043Z,6.53
2023-03-18T06:13:48.047Z,6.60
2023-03-18T06:19:20.272Z,6.69
2023-03-18T06:24:52.145Z,6.81
2023-03-18T06:30:24.681Z,6.97
2023-03-18T06:35:56.824Z,7.14
2023-03-18T06:38:08.940Z,7.17
2023-03-18T06:49:13.418Z,7.65
2023-03-18T06:54:46.101Z,7.93
2023-03-18T07:02:39.803Z,8.69
2023-03-18T07:08:11.528Z,8.98
2023-03-18T07:13:43.484Z,9.31
2023-03-18T07:19:15.244Z,9.66
2023-03-18T07:24:46.803Z,10.04
2023-03-18T07:32:40.560Z,10.97
2023-03-18T07:38:12.401Z,11.23
2023-03-18T07:43:44.301Z,11.47
2023-03-18T07:49:16.117Z,11.70
2023-03-18T07:54:48.037Z,11.90
2023-03-18T08:00:19.886Z,12.09
2023-03-18T08:05:52.421Z,12.27
2023-03-18T08:11:24.143Z,12.47
2023-03-18T08:22:25.688Z,12.89
2023-03-18T08:27:57.462Z,13.15
2023-03-18T08:33:29.382Z,13.48
2023-03-18T08:39:01.112Z,13.87
2023-03-18T08:44:32.674Z,14.31
2023-03-18T08:50:04.633Z,14.75
2023-03-18T08:55:36.521Z,15.20
2023-03-18T09:01:11.376Z,15.66
2023-03-18T09:06:40.165Z,16.11
2023-03-18T09:12:12.130Z,16.49
2023-03-18T09:17:56.355Z,16.83
2023-03-18T09:23:15.994Z,17.10
2023-03-18T09:28:48.010Z,17.33
2023-03-18T09:34:19.801Z,17.53
2023-03-18T09:39:51.452Z,17.69
2023-03-18T09:45:23.290Z,17.84
2023-03-18T09:50:55.413Z,17.97
2023-03-18T09:56:27.079Z,18.14
2023-03-18T10:01:59.328Z,18.34
2023-03-18T10:07:31.263Z,18.46
2023-03-18T10:13:03.176Z,18.61
2023-03-18T10:18:35.521Z,18.78
2023-03-18T10:24:07.419Z,18.88
2023-03-18T10:29:39.303Z,18.92
2023-03-18T10:35:11.142Z,18.95
2023-03-18T10:40:42.661Z,19.01
2023-03-18T10:46:14.455Z,19.05
2023-03-18T10:51:45.994Z,19.07
2023-03-18T10:57:17.554Z,19.00
2023-03-18T11:02:49.529Z,18.77
2023-03-18T11:08:21.165Z,18.67
2023-03-18T11:19:22.028Z,18.53
2023-03-18T11:24:53.814Z,18.50
2023-03-18T11:30:33.987Z,18.61
2023-03-18T11:35:57.458Z,18.62
2023-03-18T11:41:29.371Z,18.51
2023-03-18T11:47:01.327Z,18.36
2023-03-18T11:52:33.105Z,18.28
2023-03-18T11:58:05.150Z,18.16
2023-03-18T12:03:37.093Z,17.99
2023-03-18T12:09:09.278Z,17.84
2023-03-18T12:14:40.922Z,17.71
2023-03-18T12:20:13.098Z,17.79
2023-03-18T12:25:45.166Z,17.89
2023-03-18T12:31:16.820Z,17.92
2023-03-18T12:36:48.734Z,18.05
2023-03-18T12:42:20.760Z,18.12
2023-03-18T12:47:52.804Z,18.11
2023-03-18T12:53:24.596Z,18.17
2023-03-18T13:04:26.489Z,18.10
2023-03-18T13:09:59.652Z,18.03
2023-03-18T13:15:31.845Z,17.97
2023-03-18T13:21:03.679Z,17.90
2023-03-18T13:26:35.470Z,18.02
2023-03-18T13:32:07.766Z,18.22
2023-03-18T13:37:39.876Z,18.27
2023-03-18T13:43:11.426Z,18.18
2023-03-18T13:48:43.352Z,18.22
2023-03-18T13:54:15.039Z,18.30
2023-03-18T13:59:46.535Z,18.34
2023-03-18T14:05:18.610Z,18.32
2023-03-18T14:10:50.445Z,18.18
2023-03-18T14:16:22.727Z,18.06
2023-03-18T14:21:54.451Z,17.98
2023-03-18T14:27:26.371Z,17.91
2023-03-18T14:32:58.066Z,17.95
2023-03-18T14:38:30.047Z,17.99
2023-03-18T14:44:02.173Z,17.99
2023-03-18T14:49:34.703Z,17.99
2023-03-18T14:55:06.640Z,18.05
2023-03-18T15:00:39.023Z,18.03
2023-03-18T15:06:11.489Z,17.98
2023-03-18T15:11:43.921Z,17.99
2023-03-18T15:17:16.760Z,17.95
2023-03-18T15:22:48.775Z,17.97
2023-03-18T15:28:20.338Z,18.01
2023-03-18T15:33:52.539Z,18.02
2023-03-18T15:39:25.474Z,18.02
2023-03-18T15:44:57.470Z,17.99
2023-03-18T15:50:29.246Z,18.10
2023-03-18T15:56:01.269Z,18.30
2023-03-18T16:01:33.437Z,18.25
2023-03-18T16:07:05.137Z,18.04
2023-03-18T16:12:37.133Z,17.88
2023-03-18T16:18:09.291Z,17.76
2023-03-18T16:23:41.050Z,17.69
2023-03-18T16:29:12.720Z,17.63
2023-03-18T16:34:46.691Z,17.53
2023-03-18T16:40:16.384Z,17.43
2023-03-18T16:45:48.012Z,17.30
2023-03-18T16:51:20.088Z,17.13
2023-03-18T16:56:53.363Z,16.99
2023-03-18T17:02:25.863Z,16.94
2023-03-18T17:07:58.050Z,16.87
2023-03-18T17:13:29.971Z,16.80
2023-03-18T17:19:01.932Z,16.75
2023-03-18T17:24:33.885Z,16.67
2023-03-18T17:30:06.370Z,16.57
2023-03-18T17:35:38.307Z,16.45
2023-03-18T17:41:10.220Z,16.28
2023-03-18T17:46:42.355Z,16.07
2023-03-18T17:52:15.156Z,15.91
2023-03-18T17:57:47.490Z,15.73
2023-03-18T18:03:19.540Z,15.52
2023-03-18T18:08:51.773Z,15.38
2023-03-18T18:14:24.074Z,15.27
2023-03-18T18:19:56.585Z,15.14
2023-03-18T18:25:28.402Z,14.98
2023-03-18T18:42:00.379Z,14.52
2023-03-18T18:47:32.525Z,14.41
2023-03-18T18:53:04.179Z,14.26
2023-03-18T18:58:36.498Z,14.10
2023-03-18T19:04:09.165Z,13.96
2023-03-18T19:09:41.459Z,13.87
2023-03-18T19:15:15.467Z,13.77
2023-03-18T19:20:44.797Z,13.67
2023-03-18T19:26:16.947Z,13.54
2023-03-18T19:31:49.109Z,13.42
2023-03-18T19:37:21.131Z,13.31
2023-03-18T19:42:53.739Z,13.21
2023-03-18T19:48:25.855Z,13.09
2023-03-18T19:53:58.080Z,12.97
2023-03-18T19:59:38.275Z,12.86
2023-03-18T20:05:02.054Z,12.76
2023-03-18T20:10:34.737Z,12.67
2023-03-18T20:16:07.175Z,12.57
2023-03-18T20:21:39.861Z,12.44
2023-03-18T20:27:11.883Z,12.35
2023-03-18T20:32:44.263Z,12.23
2023-03-18T20:38:16.601Z,12.11
2023-03-18T20:43:48.546Z,12.00
2023-03-18T20:45:59.747Z,11.41
2023-03-18T20:51:31.797Z,11.54
2023-03-18T20:57:03.956Z,11.54
2023-03-18T21:02:35.938Z,11.49
2023-03-18T21:08:07.833Z,11.41
2023-03-18T21:13:39.581Z,11.32
2023-03-18T21:19:11.674Z,11.21
2023-03-18T21:24:43.736Z,11.12
2023-03-18T21:30:15.284Z,11.04
2023-03-18T21:35:47.519Z,10.96
2023-03-18T21:41:19.583Z,10.87
2023-03-18T21:46:51.515Z,10.79
2023-03-18T21:52:23.716Z,10.74
2023-03-18T21:57:55.819Z,10.65
2023-03-18T22:03:27.985Z,10.56
2023-03-18T22:09:00.381Z,10.48
2023-03-18T22:14:32.594Z,10.41
2023-03-18T22:20:05.137Z,10.33
2023-03-18T22:25:37.145Z,10.25
2023-03-18T22:31:09.284Z,10.15
2023-03-18T22:36:41.024Z,10.05
2023-03-18T22:42:12.870Z,9.97
2023-03-18T22:47:44.665Z,9.88
2023-03-18T22:53:16.993Z,9.81
2023-03-18T22:58:49.135Z,9.75
2023-03-18T23:04:21.161Z,9.70
2023-03-18T23:15:23.078Z,9.57
2023-03-18T23:20:55.413Z,9.50
2023-03-18T23:26:27.268Z,9.43
2023-03-18T23:31:59.404Z,9.38
2023-03-18T23:37:31.739Z,9.36
2023-03-18T23:43:03.833Z,9.35
2023-03-18T23:48:35.676Z,9.32
2023-03-18T23:54:08.787Z,9.29
2023-03-18T23:59:40.766Z,9.25
